createdAt,value
2022-08-21T00:00:24.269Z,94108.34
2022-08-21T00:02:55.184Z,94103.69
2022-08-21T00:05:23.097Z,94091.25
2022-08-21T00:07:49.942Z,94070.94
2022-08-21T00:10:25.737Z,94084.06
2022-08-21T00:12:52.528Z,94059.19
2022-08-21T00:15:23.666Z,94090.31
2022-08-21T00:17:50.258Z,94069.59
2022-08-21T00:20:18.142Z,94089.34
2022-08-21T00:22:46.931Z,94094.31
2022-08-21T00:25:15.181Z,94096.81
2022-08-21T00:27:47.420Z,94096.97
2022-08-21T00:30:17.726Z,94057.47
2022-08-21T00:32:51.060Z,94082.19
2022-08-21T00:35:20.570Z,94018.47
2022-08-21T00:37:47.086Z,94054.72
2022-08-21T00:40:17.669Z,94061.59
2022-08-21T00:42:44.863Z,94061.00
2022-08-21T00:45:20.529Z,94042.00
2022-08-21T00:47:47.020Z,94052.09
2022-08-21T00:50:21.658Z,94073.84
2022-08-21T00:52:50.556Z,94054.25
2022-08-21T00:55:17.672Z,94052.31
2022-08-21T00:57:50.504Z,94041.91
2022-08-21T01:00:22.300Z,94064.91
2022-08-21T01:02:48.774Z,94045.38
2022-08-21T01:05:15.722Z,94047.53
2022-08-21T01:07:43.002Z,94038.59
2022-08-21T01:10:20.542Z,94018.03
2022-08-21T01:12:52.749Z,94062.06
2022-08-21T01:15:22.278Z,94048.50
2022-08-21T01:17:53.096Z,94055.59
2022-08-21T01:20:19.934Z,94054.28
2022-08-21T01:22:46.711Z,94052.31
2022-08-21T01:25:22.598Z,94063.25
2022-08-21T01:27:49.420Z,94062.06
2022-08-21T01:30:22.910Z,94000.94
2022-08-21T01:32:50.386Z,94042.41
2022-08-21T01:35:18.445Z,94055.78
2022-08-21T01:37:45.146Z,94049.78
2022-08-21T01:40:12.772Z,94054.06
2022-08-21T01:42:39.867Z,94033.47
2022-08-21T01:45:08.272Z,94041.09
2022-08-21T01:47:35.873Z,94055.94
2022-08-21T01:50:05.280Z,94050.72
2022-08-21T01:52:31.983Z,94033.47
2022-08-21T01:54:58.532Z,94000.03
2022-08-21T01:57:26.083Z,94048.75
2022-08-21T01:59:53.731Z,94020.16
2022-08-21T02:02:20.354Z,94016.09
2022-08-21T02:04:46.824Z,94028.22
2022-08-21T02:07:13.323Z,94024.56
2022-08-21T02:09:40.263Z,94017.72
2022-08-21T02:12:07.018Z,93994.41
2022-08-21T02:14:34.494Z,94020.00
2022-08-21T02:17:08.723Z,94014.38
2022-08-21T02:19:40.109Z,94026.66
2022-08-21T02:22:10.647Z,93984.44
2022-08-21T02:24:50.172Z,93997.72
2022-08-21T02:27:26.116Z,94004.97
2022-08-21T02:29:54.034Z,93998.94
2022-08-21T02:32:22.305Z,94003.78
2022-08-21T02:34:49.460Z,94010.22
2022-08-21T02:37:15.889Z,94015.88
2022-08-21T02:39:42.327Z,94009.03
2022-08-21T02:42:08.840Z,94024.75
2022-08-21T02:44:35.343Z,94003.00
2022-08-21T02:47:01.774Z,94004.22
2022-08-21T02:49:28.174Z,94005.03
2022-08-21T02:51:54.715Z,94003.00
2022-08-21T02:54:22.202Z,94026.78
2022-08-21T02:56:48.654Z,94011.06
2022-08-21T02:59:15.068Z,94018.69
2022-08-21T03:01:41.676Z,93998.56
2022-08-21T03:04:08.103Z,94000.19
2022-08-21T03:06:34.774Z,93987.91
2022-08-21T03:09:01.368Z,93980.06
2022-08-21T03:11:27.877Z,93996.56
2022-08-21T03:13:54.323Z,93991.31
2022-08-21T03:16:21.606Z,94015.09
2022-08-21T03:18:48.320Z,94007.06
2022-08-21T03:21:14.848Z,94019.72
2022-08-21T03:23:42.969Z,94025.16
2022-08-21T03:26:11.702Z,94004.41
2022-08-21T03:28:38.339Z,94024.34
2022-08-21T03:31:06.365Z,93998.97
2022-08-21T03:33:33.945Z,93991.72
2022-08-21T03:36:07.865Z,94023.53
2022-08-21T03:38:35.909Z,94017.91
2022-08-21T03:41:03.851Z,94002.19
2022-08-21T03:43:32.134Z,93996.16
2022-08-21T03:45:59.862Z,93994.53
2022-08-21T03:48:26.292Z,93989.31
2022-08-21T03:50:53.839Z,94016.69
2022-08-21T03:53:20.298Z,94001.38
2022-08-21T03:55:51.779Z,94014.28
2022-08-21T03:58:22.114Z,94012.06
2022-08-21T04:00:51.268Z,93991.31
2022-08-21T04:03:17.988Z,94004.59
2022-08-21T04:05:46.489Z,94014.28
2022-08-21T04:08:14.563Z,94009.03
2022-08-21T04:10:42.191Z,94023.91
2022-08-21T04:13:09.147Z,94018.47
2022-08-21T04:15:36.173Z,94026.31
2022-08-21T04:18:03.624Z,94023.06
2022-08-21T04:20:30.129Z,94004.88
2022-08-21T04:22:57.381Z,93997.25
2022-08-21T04:25:26.311Z,93993.22
2022-08-21T04:27:53.270Z,94015.72
2022-08-21T04:30:20.411Z,94029.84
2022-08-21T04:32:49.943Z,94043.13
2022-08-21T04:35:18.870Z,94023.81
2022-08-21T04:37:45.400Z,94024.56
2022-08-21T04:40:13.590Z,94047.38
2022-08-21T04:42:54.111Z,94012.50
2022-08-21T04:45:26.177Z,94053.19
2022-08-21T04:47:54.569Z,94032.63
2022-08-21T04:50:32.558Z,94046.78
2022-08-21T04:52:59.676Z,94039.94
2022-08-21T04:55:29.503Z,94028.66
2022-08-21T04:57:57.721Z,94034.72
2022-08-21T05:00:25.645Z,94054.50
2022-08-21T05:02:57.346Z,94031.16
2022-08-21T05:05:25.020Z,94059.78
2022-08-21T05:07:53.134Z,94036.00
2022-08-21T05:10:20.554Z,94068.06
2022-08-21T05:12:47.296Z,94047.72
2022-08-21T05:15:14.054Z,94064.03
2022-08-21T05:17:52.553Z,94046.50
2022-08-21T05:20:27.463Z,94041.88
2022-08-21T05:22:53.975Z,94055.59
2022-08-21T05:25:22.345Z,94063.81
2022-08-21T05:27:51.977Z,94039.66
2022-08-21T05:30:19.959Z,94031.59
2022-08-21T05:32:47.013Z,94028.34
2022-08-21T05:35:13.446Z,94056.50
2022-08-21T05:37:40.291Z,94049.41
2022-08-21T05:40:22.412Z,94030.69
2022-08-21T05:42:54.260Z,94057.22
2022-08-21T05:45:41.620Z,94031.06
2022-08-21T05:48:18.086Z,93967.06
2022-08-21T05:50:45.979Z,94025.34
2022-08-21T05:53:13.552Z,94033.47
2022-08-21T05:55:45.284Z,94063.59
2022-08-21T05:58:18.476Z,94064.56
2022-08-21T06:00:48.230Z,94051.84
2022-08-21T06:03:24.746Z,94031.66
2022-08-21T06:05:51.215Z,94047.19
2022-08-21T06:08:18.411Z,94049.38
2022-08-21T06:10:45.993Z,94041.16
2022-08-21T06:13:13.134Z,94043.19
2022-08-21T06:15:39.676Z,94037.50
2022-08-21T06:18:06.763Z,94043.09
2022-08-21T06:20:33.833Z,94046.63
2022-08-21T06:23:00.461Z,94007.94
2022-08-21T06:25:27.260Z,94027.38
2022-08-21T06:27:53.792Z,94033.88
2022-08-21T06:30:20.803Z,94006.88
2022-08-21T06:32:47.235Z,94021.13
2022-08-21T06:35:13.705Z,94027.09
2022-08-21T06:37:40.123Z,94007.22
2022-08-21T06:40:12.556Z,94036.31
2022-08-21T06:42:39.750Z,94012.94
2022-08-21T06:45:08.192Z,94033.31
2022-08-21T06:47:34.619Z,94034.41
2022-08-21T06:50:01.198Z,94023.91
2022-08-21T06:52:27.607Z,93998.69
2022-08-21T06:54:54.011Z,94035.44
2022-08-21T06:57:20.426Z,94015.72
2022-08-21T06:59:46.850Z,94019.34
2022-08-21T07:02:13.264Z,94038.03
2022-08-21T07:04:39.686Z,94035.09
2022-08-21T07:07:06.158Z,94036.22
2022-08-21T07:09:32.634Z,93947.47
2022-08-21T07:11:59.183Z,94000.63
2022-08-21T07:14:25.716Z,94030.38
2022-08-21T07:16:52.365Z,94026.69
2022-08-21T07:19:19.561Z,94038.53
2022-08-21T07:21:46.338Z,94020.56
2022-08-21T07:24:13.233Z,94015.28
2022-08-21T07:26:39.883Z,94013.94
2022-08-21T07:29:06.309Z,93996.97
2022-08-21T07:31:33.007Z,94014.44
2022-08-21T07:33:59.785Z,94011.94
2022-08-21T07:36:26.761Z,94014.25
2022-08-21T07:38:53.312Z,93994.06
2022-08-21T07:41:23.715Z,94024.09
2022-08-21T07:43:52.676Z,94011.50
2022-08-21T07:46:20.436Z,94023.28
2022-08-21T07:48:47.113Z,93978.94
2022-08-21T07:51:16.319Z,94004.94
2022-08-21T07:53:43.406Z,94016.88
2022-08-21T07:56:11.904Z,94010.34
2022-08-21T07:58:38.866Z,93991.75
2022-08-21T08:01:06.904Z,94002.88
2022-08-21T08:03:34.023Z,94005.72
2022-08-21T08:06:00.660Z,93988.75
2022-08-21T08:08:27.311Z,94007.34
2022-08-21T08:10:57.342Z,93987.03
2022-08-21T08:13:24.113Z,94000.25
2022-08-21T08:15:50.718Z,93985.31
2022-08-21T08:18:17.202Z,94005.69
2022-08-21T08:20:43.674Z,93982.03
2022-08-21T08:23:14.843Z,93978.34
2022-08-21T08:25:41.954Z,93981.34
2022-08-21T08:28:16.983Z,94000.91
2022-08-21T08:30:45.523Z,93991.97
2022-08-21T08:33:11.953Z,93985.03
2022-08-21T08:35:39.159Z,93966.97
2022-08-21T08:38:06.003Z,93966.97
2022-08-21T08:40:48.616Z,93971.22
2022-08-21T08:43:15.554Z,93981.47
2022-08-21T08:45:48.406Z,93987.00
2022-08-21T08:48:31.542Z,93986.06
2022-08-21T08:51:02.621Z,93982.22
2022-08-21T08:53:33.027Z,93985.56
2022-08-21T08:56:03.369Z,93962.81
2022-08-21T08:58:38.231Z,93990.22
2022-08-21T09:01:16.186Z,93990.78
2022-08-21T09:03:43.237Z,93966.38
2022-08-21T09:06:17.124Z,93988.22
2022-08-21T09:09:01.797Z,93989.59
2022-08-21T09:11:40.641Z,93993.00
2022-08-21T09:14:21.827Z,93988.06
2022-08-21T09:16:54.234Z,93952.44
2022-08-21T09:19:48.498Z,93990.22
2022-08-21T09:22:30.296Z,93978.00
2022-08-21T09:25:14.530Z,93965.88
2022-08-21T09:27:41.006Z,93963.72
2022-08-21T09:30:08.931Z,93959.16
2022-08-21T09:32:38.288Z,93957.41
2022-08-21T09:35:04.740Z,93979.44
2022-08-21T09:37:35.268Z,93973.19
2022-08-21T09:40:14.939Z,93958.28
2022-08-21T09:42:41.383Z,93960.28
2022-08-21T09:45:19.185Z,93967.34
2022-08-21T09:47:46.578Z,93970.41
2022-08-21T09:50:25.423Z,93943.56
2022-08-21T09:52:58.965Z,93889.38
2022-08-21T09:55:57.406Z,93970.16
2022-08-21T09:58:35.126Z,93949.47
2022-08-21T10:01:04.294Z,93968.53
2022-08-21T10:03:30.906Z,93970.56
2022-08-21T10:06:09.547Z,93968.16
2022-08-21T10:08:41.323Z,93954.16
2022-08-21T10:11:14.670Z,93941.97
2022-08-21T10:14:18.900Z,93972.44
2022-08-21T10:16:57.156Z,93955.31
2022-08-21T10:19:52.350Z,93954.06
2022-08-21T10:22:42.092Z,93937.47
2022-08-21T10:25:17.483Z,93960.38
2022-08-21T10:27:56.021Z,93930.56
2022-08-21T10:30:37.378Z,93918.09
2022-08-21T10:33:17.051Z,93913.31
2022-08-21T10:36:18.842Z,93947.16
2022-08-21T10:42:11.242Z,93942.91
2022-08-21T10:44:59.517Z,93936.50
2022-08-21T10:47:31.274Z,93913.06
2022-08-21T10:50:35.343Z,93886.47
2022-08-21T10:53:26.520Z,93937.03
2022-08-21T10:56:03.070Z,93922.66
2022-08-21T10:58:51.926Z,93926.91
2022-08-21T11:01:28.633Z,93927.41
2022-08-21T11:04:23.506Z,93920.50
2022-08-21T11:07:17.264Z,93921.53
2022-08-21T11:09:48.724Z,93923.69
2022-08-21T11:12:36.740Z,93889.69
2022-08-21T11:15:29.159Z,93920.75
2022-08-21T11:18:06.129Z,93916.22
2022-08-21T11:20:44.352Z,93895.41
2022-08-21T11:23:24.485Z,93919.88
2022-08-21T11:25:56.119Z,93889.59
2022-08-21T11:28:33.101Z,93895.19
2022-08-21T11:31:32.470Z,93891.72
2022-08-21T11:34:13.974Z,93910.31
2022-08-21T11:37:09.195Z,93904.44
2022-08-21T11:40:27.440Z,93899.16
2022-08-21T11:43:02.880Z,93896.41
2022-08-21T11:45:44.618Z,93895.88
2022-08-21T11:48:46.592Z,93885.03
2022-08-21T11:51:21.620Z,93884.56
2022-08-21T11:54:00.188Z,93886.22
2022-08-21T11:56:39.716Z,93894.72
2022-08-21T11:59:12.074Z,93866.19
2022-08-21T12:01:45.693Z,93850.00
2022-08-21T12:04:29.900Z,93885.84
2022-08-21T12:06:57.297Z,93888.50
2022-08-21T12:09:26.696Z,93888.00
2022-08-21T12:12:30.354Z,93881.06
2022-08-21T12:15:20.841Z,93848.00
2022-08-21T12:18:02.730Z,93871.94
2022-08-21T12:20:57.882Z,93859.06
2022-08-21T12:23:45.666Z,93860.59
2022-08-21T12:26:21.412Z,93868.75
2022-08-21T12:28:48.227Z,93836.72
2022-08-21T12:31:20.127Z,93856.50
2022-08-21T12:33:54.919Z,93850.47
2022-08-21T12:36:26.746Z,93849.19
2022-08-21T12:39:05.814Z,93837.47
2022-08-21T12:41:42.903Z,93846.22
2022-08-21T12:44:13.663Z,93843.34
2022-08-21T12:46:46.474Z,93848.34
2022-08-21T12:49:36.570Z,93823.38
2022-08-21T12:52:12.498Z,93800.22
2022-08-21T12:54:42.522Z,93833.94
2022-08-21T12:57:18.712Z,93836.47
2022-08-21T12:59:45.311Z,93827.91
2022-08-21T13:02:19.759Z,93809.44
2022-08-21T13:04:48.213Z,93805.47
2022-08-21T13:07:21.549Z,93826.06
2022-08-21T13:09:51.786Z,93799.31
2022-08-21T13:12:20.716Z,93827.91
2022-08-21T13:14:50.831Z,93822.22
2022-08-21T13:17:25.777Z,93810.16
2022-08-21T13:19:59.497Z,93815.97
2022-08-21T13:22:33.801Z,93824.66
2022-08-21T13:25:06.647Z,93815.56
2022-08-21T13:27:35.056Z,93816.75
2022-08-21T13:30:08.309Z,93815.84
2022-08-21T13:32:38.823Z,93818.00
2022-08-21T13:35:27.058Z,93816.63
2022-08-21T13:37:55.542Z,93813.16
2022-08-21T13:40:32.444Z,93814.75
2022-08-21T13:43:01.200Z,93800.59
2022-08-21T13:45:33.864Z,93800.28
2022-08-21T13:48:06.696Z,93796.09
2022-08-21T13:50:36.279Z,93810.69
2022-08-21T13:53:06.839Z,93810.41
2022-08-21T13:55:40.623Z,93765.94
2022-08-21T13:58:08.136Z,93816.44
2022-08-21T14:00:44.213Z,93807.97
2022-08-21T14:03:12.107Z,93813.03
2022-08-21T14:05:45.651Z,93817.50
2022-08-21T14:08:21.286Z,93803.72
2022-08-21T14:10:57.468Z,93779.88
2022-08-21T14:13:38.657Z,93766.19
2022-08-21T14:16:20.355Z,93806.09
2022-08-21T14:18:51.850Z,93792.50
2022-08-21T14:21:51.087Z,93814.25
2022-08-21T14:24:23.857Z,93813.13
2022-08-21T14:26:54.447Z,93792.25
2022-08-21T14:29:25.040Z,93794.13
2022-08-21T14:32:00.742Z,93811.00
2022-08-21T14:34:32.867Z,93806.06
2022-08-21T14:37:01.970Z,93775.00
2022-08-21T14:39:28.392Z,93806.28
2022-08-21T14:41:55.246Z,93796.19
2022-08-21T14:44:21.776Z,93792.22
2022-08-21T14:46:55.864Z,93767.72
2022-08-21T14:49:24.186Z,93793.28
2022-08-21T14:51:56.326Z,93781.22
2022-08-21T14:54:30.566Z,93769.72
2022-08-21T14:57:01.565Z,93804.53
2022-08-21T14:59:28.428Z,93769.88
2022-08-21T15:01:54.954Z,93792.13
2022-08-21T15:04:21.374Z,93802.69
2022-08-21T15:06:47.891Z,93773.78
2022-08-21T15:09:14.477Z,93773.63
2022-08-21T15:11:41.823Z,93770.03
2022-08-21T15:14:13.190Z,93760.91
2022-08-21T15:16:39.692Z,93772.63
2022-08-21T15:19:06.122Z,93767.88
2022-08-21T15:21:32.600Z,93765.28
2022-08-21T15:23:59.030Z,93771.69
2022-08-21T15:26:25.739Z,93769.19
2022-08-21T15:28:52.515Z,93778.47
2022-08-21T15:31:18.996Z,93776.81
2022-08-21T15:33:45.540Z,93757.59
2022-08-21T15:36:12.031Z,93757.19
2022-08-21T15:38:38.541Z,93767.28
2022-08-21T15:41:06.055Z,93774.31
2022-08-21T15:43:44.452Z,93746.56
2022-08-21T15:46:14.234Z,93783.03
2022-08-21T15:48:41.112Z,93763.56
2022-08-21T15:51:10.839Z,93761.44
2022-08-21T15:53:39.947Z,93752.09
2022-08-21T15:56:22.330Z,93778.47
2022-08-21T15:58:50.250Z,93770.84
2022-08-21T16:01:17.122Z,93776.19
2022-08-21T16:03:48.708Z,93771.84
2022-08-21T16:06:15.235Z,93760.19
2022-08-21T16:08:41.744Z,93744.00
2022-08-21T16:11:08.226Z,93749.81
2022-08-21T16:13:43.684Z,93768.03
2022-08-21T16:16:19.694Z,93774.06
2022-08-21T16:18:47.154Z,93754.72
2022-08-21T16:21:14.244Z,93770.84
2022-08-21T16:23:42.323Z,93772.44
2022-08-21T16:26:11.658Z,93762.44
2022-08-21T16:28:46.385Z,93762.41
2022-08-21T16:31:15.470Z,93759.56
2022-08-21T16:33:53.510Z,93745.28
2022-08-21T16:36:26.380Z,93755.34
2022-08-21T16:38:54.852Z,93746.88
2022-08-21T16:41:23.266Z,93742.72
2022-08-21T16:43:51.762Z,93743.13
2022-08-21T16:46:20.546Z,93739.13
2022-08-21T16:48:47.396Z,93759.78
2022-08-21T16:51:15.080Z,93763.06
2022-08-21T16:53:42.820Z,93731.44
2022-08-21T16:56:10.834Z,93757.38
2022-08-21T16:58:42.086Z,93745.81
2022-08-21T17:01:11.594Z,93728.94
2022-08-21T17:03:42.203Z,93740.19
2022-08-21T17:06:09.394Z,93749.66
2022-08-21T17:11:03.397Z,93757.00
2022-08-21T17:13:30.688Z,93745.94
2022-08-21T17:15:57.676Z,93733.47
2022-08-21T17:18:25.131Z,93716.16
2022-08-21T17:20:51.914Z,93712.91
2022-08-21T17:23:19.700Z,93749.78
2022-08-21T17:25:49.644Z,93767.84
2022-08-21T17:28:23.966Z,93736.81
2022-08-21T17:30:52.118Z,93725.41
2022-08-21T17:33:19.640Z,93765.25
2022-08-21T17:35:46.599Z,93749.59
2022-08-21T17:38:14.773Z,93743.97
2022-08-21T17:40:41.659Z,93760.38
2022-08-21T17:43:12.920Z,93773.00
2022-08-21T17:45:40.628Z,93757.47
2022-08-21T17:48:07.371Z,93739.75
2022-08-21T17:50:34.063Z,93736.06
2022-08-21T17:53:00.744Z,93752.00
2022-08-21T17:55:29.481Z,93743.00
2022-08-21T17:57:57.161Z,93742.97
2022-08-21T18:00:26.060Z,93763.44
2022-08-21T18:03:01.798Z,93766.06
2022-08-21T18:05:29.170Z,93767.34
2022-08-21T18:07:55.855Z,93758.28
2022-08-21T18:10:23.031Z,93763.78
2022-08-21T18:12:49.954Z,93766.66
2022-08-21T18:15:18.058Z,93778.34
2022-08-21T18:17:48.097Z,93761.16
2022-08-21T18:20:17.947Z,93741.25
2022-08-21T18:22:44.973Z,93766.53
2022-08-21T18:25:11.502Z,93764.19
2022-08-21T18:27:38.949Z,93767.25
2022-08-21T18:30:06.272Z,93766.94
2022-08-21T18:32:32.811Z,93791.22
2022-08-21T18:35:01.824Z,93785.41
2022-08-21T18:37:29.188Z,93759.09
2022-08-21T18:39:56.254Z,93771.78
2022-08-21T18:42:28.444Z,93792.91
2022-08-21T18:44:59.030Z,93808.78
2022-08-21T18:47:32.615Z,93783.50
2022-08-21T18:49:59.591Z,93787.50
2022-08-21T18:52:28.465Z,93777.94
2022-08-21T18:54:55.299Z,93800.03
2022-08-21T18:57:23.293Z,93808.03
2022-08-21T18:59:49.908Z,93791.72
2022-08-21T19:02:16.387Z,93816.03
2022-08-21T19:04:44.922Z,93786.75
2022-08-21T19:07:13.609Z,93790.91
2022-08-21T19:09:41.182Z,93783.31
2022-08-21T19:12:14.036Z,93812.84
2022-08-21T19:14:41.135Z,93808.50
2022-08-21T19:17:08.663Z,93806.72
2022-08-21T19:19:36.644Z,93797.25
2022-08-21T19:22:06.158Z,93827.75
2022-08-21T19:24:37.831Z,93804.50
2022-08-21T19:27:04.502Z,93801.41
2022-08-21T19:29:35.180Z,93812.56
2022-08-21T19:32:04.542Z,93832.91
2022-08-21T19:34:31.380Z,93805.25
2022-08-21T19:36:59.216Z,93826.97
2022-08-21T19:39:25.761Z,93834.31
2022-08-21T19:41:57.107Z,93816.03
2022-08-21T19:44:28.246Z,93824.25
2022-08-21T19:47:00.085Z,93843.72
2022-08-21T19:49:34.075Z,93805.47
2022-08-21T19:52:01.693Z,93808.03
2022-08-21T19:54:34.354Z,93833.56
2022-08-21T19:57:06.701Z,93825.31
2022-08-21T19:59:35.353Z,93825.44
2022-08-21T20:02:02.131Z,93833.03
2022-08-21T20:04:28.664Z,93801.38
2022-08-21T20:06:55.338Z,93786.72
2022-08-21T20:09:21.901Z,93780.22
2022-08-21T20:11:51.807Z,93816.97
2022-08-21T20:14:22.001Z,93797.72
2022-08-21T20:16:52.572Z,93786.97
2022-08-21T20:19:38.255Z,93822.44
2022-08-21T20:22:05.588Z,93779.50
2022-08-21T20:24:33.148Z,93791.59
2022-08-21T20:27:02.313Z,93804.28
2022-08-21T20:32:19.142Z,93820.06
2022-08-21T20:34:52.116Z,93816.59
2022-08-21T20:37:35.706Z,93831.03
2022-08-21T20:40:09.899Z,93823.91
2022-08-21T20:42:38.601Z,93762.41
2022-08-21T20:45:08.404Z,93829.53
2022-08-21T20:47:36.264Z,93790.84
2022-08-21T20:50:13.034Z,93807.91
2022-08-21T20:52:41.559Z,93799.59
2022-08-21T20:55:14.353Z,93835.75
2022-08-21T20:58:03.916Z,93831.75
2022-08-21T21:00:34.994Z,93827.31
2022-08-21T21:03:30.487Z,93822.94
2022-08-21T21:06:04.646Z,93826.69
2022-08-21T21:08:41.430Z,93788.22
2022-08-21T21:11:19.619Z,93820.88
2022-08-21T21:14:00.640Z,93825.00
2022-08-21T21:16:36.524Z,93826.88
2022-08-21T21:19:37.091Z,93820.56
2022-08-21T21:22:13.977Z,93792.19
2022-08-21T21:25:02.920Z,93835.22
2022-08-21T21:27:37.715Z,93815.84
2022-08-21T21:30:16.516Z,93819.81
2022-08-21T21:32:47.843Z,93825.91
2022-08-21T21:35:16.842Z,93819.91
2022-08-21T21:38:18.371Z,93828.66
2022-08-21T21:40:48.654Z,93825.88
2022-08-21T21:43:52.715Z,93826.94
2022-08-21T21:46:52.942Z,93790.13
2022-08-21T21:49:34.213Z,93801.88
2022-08-21T21:52:29.303Z,93834.03
2022-08-21T21:55:03.149Z,93838.09
2022-08-21T21:57:59.988Z,93820.56
2022-08-21T22:00:32.847Z,93823.78
2022-08-21T22:03:02.249Z,93840.59
2022-08-21T22:05:57.479Z,93841.59
2022-08-21T22:08:39.294Z,93834.59
2022-08-21T22:11:29.444Z,93833.41
2022-08-21T22:14:10.146Z,93845.84
2022-08-21T22:16:37.918Z,93846.19
2022-08-21T22:19:23.087Z,93842.50
2022-08-21T22:22:09.147Z,93848.94
2022-08-21T22:24:40.254Z,93852.13
2022-08-21T22:27:12.095Z,93834.03
2022-08-21T22:29:48.610Z,93845.59
2022-08-21T22:32:42.794Z,93855.34
2022-08-21T22:35:22.486Z,93848.47
2022-08-21T22:37:53.836Z,93849.66
2022-08-21T22:40:28.909Z,93855.34
2022-08-21T22:43:07.462Z,93828.25
2022-08-21T22:45:57.370Z,93845.69
2022-08-21T22:48:28.415Z,93813.88
2022-08-21T22:51:05.796Z,93849.03
2022-08-21T22:53:39.585Z,93845.47
2022-08-21T22:56:07.706Z,93811.75
2022-08-21T22:58:40.860Z,93849.09
2022-08-21T23:01:33.285Z,93827.75
2022-08-21T23:04:19.223Z,93853.00
2022-08-21T23:06:52.022Z,93832.25
2022-08-21T23:09:21.077Z,93851.50
2022-08-21T23:11:50.954Z,93843.47
2022-08-21T23:14:18.393Z,93841.13
2022-08-21T23:16:58.102Z,93844.09
2022-08-21T23:19:49.295Z,93835.72
2022-08-21T23:22:34.055Z,93825.69
2022-08-21T23:25:24.902Z,93804.91
2022-08-21T23:28:38.707Z,93794.84
2022-08-21T23:31:32.756Z,93830.59
2022-08-21T23:34:25.591Z,93834.63
2022-08-21T23:37:49.754Z,93829.41
2022-08-21T23:40:41.048Z,93830.25
2022-08-21T23:43:43.556Z,93831.59
2022-08-21T23:46:32.413Z,93824.56
2022-08-21T23:49:07.672Z,93767.22
2022-08-21T23:51:54.517Z,93820.66
2022-08-21T23:54:27.272Z,93805.91
2022-08-21T23:57:31.490Z,93789.81
